createdAt,value
2022-12-26T00:01:45.621Z,100369.28
2022-12-26T00:04:49.706Z,100368.06
2022-12-26T00:06:58.585Z,100375.88
2022-12-26T00:09:25.038Z,100377.84
2022-12-26T00:11:51.509Z,100369.94
2022-12-26T00:14:18.048Z,100361.91
2022-12-26T00:16:45.117Z,100357.63
2022-12-26T00:19:11.875Z,100342.63
2022-12-26T00:21:38.692Z,100337.59
2022-12-26T00:24:05.350Z,100337.41
2022-12-26T00:26:33.023Z,100339.84
2022-12-26T00:28:59.602Z,100341.41
2022-12-26T00:31:28.066Z,100338.88
2022-12-26T00:33:54.736Z,100349.78
2022-12-26T00:36:23.476Z,100348.88
2022-12-26T00:38:50.671Z,100345.41
2022-12-26T00:41:17.738Z,100338.34
2022-12-26T00:43:44.523Z,100337.38
2022-12-26T00:46:11.147Z,100328.91
2022-12-26T00:48:37.851Z,100333.97
2022-12-26T00:51:05.025Z,100333.78
2022-12-26T00:53:31.613Z,100332.25
2022-12-26T00:55:58.061Z,100332.00
2022-12-26T00:58:25.011Z,100324.16
2022-12-26T01:00:51.749Z,100322.19
2022-12-26T01:03:18.533Z,100320.16
2022-12-26T01:05:46.468Z,100315.94
2022-12-26T01:08:19.675Z,100313.25
2022-12-26T01:10:50.423Z,100306.28
2022-12-26T01:13:16.920Z,100309.63
2022-12-26T01:15:50.742Z,100307.84
2022-12-26T01:18:17.709Z,100305.97
2022-12-26T01:20:44.171Z,100299.09
2022-12-26T01:23:10.678Z,100300.00
2022-12-26T01:25:37.171Z,100309.81
2022-12-26T01:28:23.721Z,100313.16
2022-12-26T01:30:50.236Z,100327.31
2022-12-26T01:33:16.736Z,100322.84
2022-12-26T01:35:53.211Z,100318.47
2022-12-26T01:38:20.431Z,100302.44
2022-12-26T01:40:47.575Z,100293.09
2022-12-26T01:43:14.793Z,100298.19
2022-12-26T01:45:42.793Z,100297.63
2022-12-26T01:48:19.465Z,100281.50
2022-12-26T01:50:48.711Z,100295.63
2022-12-26T01:53:15.285Z,100292.00
2022-12-26T01:55:43.725Z,100288.06
2022-12-26T01:58:17.440Z,100287.78
2022-12-26T02:00:44.364Z,100303.25
2022-12-26T02:03:43.729Z,100295.16
2022-12-26T02:06:11.568Z,100299.13
2022-12-26T02:08:39.421Z,100293.50
2022-12-26T02:11:27.832Z,100298.94
2022-12-26T02:13:54.819Z,100285.25
2022-12-26T02:16:21.907Z,100296.53
2022-12-26T02:18:48.382Z,100294.94
2022-12-26T02:21:17.814Z,100286.19
2022-12-26T02:24:03.380Z,100289.81
2022-12-26T02:26:41.291Z,100274.06
2022-12-26T02:29:11.036Z,100290.75
2022-12-26T02:31:46.918Z,100281.06
2022-12-26T02:34:20.208Z,100287.31
2022-12-26T02:37:02.096Z,100281.41
2022-12-26T02:39:46.734Z,100278.81
2022-12-26T02:42:13.379Z,100277.13
2022-12-26T02:44:58.298Z,100265.53
2022-12-26T02:47:24.739Z,100269.81
2022-12-26T02:50:33.113Z,100274.41
2022-12-26T02:53:18.023Z,100273.25
2022-12-26T02:56:05.140Z,100291.16
2022-12-26T02:58:57.686Z,100286.13
2022-12-26T03:01:58.068Z,100290.59
2022-12-26T03:04:45.348Z,100283.13
2022-12-26T03:07:34.408Z,100292.59
2022-12-26T03:10:22.137Z,100288.03
2022-12-26T03:13:13.279Z,100298.28
2022-12-26T03:16:04.502Z,100290.72
2022-12-26T03:18:57.557Z,100297.97
2022-12-26T03:21:21.600Z,100286.44
2022-12-26T03:23:49.467Z,100285.38
2022-12-26T03:26:37.953Z,100284.72
2022-12-26T03:29:23.216Z,100289.13
2022-12-26T03:31:49.858Z,100292.91
2022-12-26T03:34:19.417Z,100288.84
2022-12-26T03:36:58.218Z,100296.78
2022-12-26T03:39:55.702Z,100288.50
2022-12-26T03:42:43.770Z,100282.47
2022-12-26T03:45:39.205Z,100286.09
2022-12-26T03:48:26.904Z,100278.91
2022-12-26T03:51:17.186Z,100285.72
2022-12-26T03:54:07.434Z,100291.94
2022-12-26T03:56:54.377Z,100292.28
2022-12-26T03:59:44.789Z,100300.75
2022-12-26T04:02:31.329Z,100293.75
2022-12-26T04:05:18.871Z,100291.38
2022-12-26T04:08:11.079Z,100308.06
2022-12-26T04:11:01.603Z,100339.50
2022-12-26T04:14:01.894Z,100332.19
2022-12-26T04:16:59.226Z,100327.69
2022-12-26T04:19:25.722Z,100317.16
2022-12-26T04:22:21.477Z,100308.81
2022-12-26T04:25:20.498Z,100306.19
2022-12-26T04:28:25.608Z,100316.75
2022-12-26T04:31:17.637Z,100317.66
2022-12-26T04:34:06.943Z,100320.47
2022-12-26T04:36:55.322Z,100327.69
2022-12-26T04:39:43.238Z,100315.06
2022-12-26T04:42:28.728Z,100322.69
2022-12-26T04:44:55.402Z,100329.03
2022-12-26T04:47:21.901Z,100330.53
2022-12-26T04:50:07.049Z,100334.25
2022-12-26T04:52:51.965Z,100325.16
2022-12-26T04:55:18.588Z,100328.00
2022-12-26T04:57:45.064Z,100329.97
2022-12-26T05:00:12.045Z,100329.13
2022-12-26T05:02:57.150Z,100330.47
2022-12-26T05:05:50.008Z,100330.72
2022-12-26T05:08:55.133Z,100337.28
2022-12-26T05:11:21.898Z,100336.88
2022-12-26T05:13:48.474Z,100347.84
2022-12-26T05:16:53.501Z,100351.50
2022-12-26T05:19:38.559Z,100358.00
2022-12-26T05:22:24.203Z,100358.03
2022-12-26T05:25:09.868Z,100362.09
2022-12-26T05:28:01.357Z,100370.75
2022-12-26T05:30:28.119Z,100344.69
2022-12-26T05:33:13.227Z,100354.25
2022-12-26T05:35:40.320Z,100346.75
2022-12-26T05:38:08.490Z,100358.66
2022-12-26T05:40:36.102Z,100358.44
2022-12-26T05:43:02.634Z,100359.19
2022-12-26T05:45:29.126Z,100367.75
2022-12-26T05:47:59.648Z,100362.53
2022-12-26T05:50:26.117Z,100360.22
2022-12-26T05:52:52.572Z,100356.88
2022-12-26T05:55:19.085Z,100363.88
2022-12-26T05:57:45.516Z,100361.78
2022-12-26T06:00:12.349Z,100358.22
2022-12-26T06:02:39.020Z,100363.88
2022-12-26T06:05:05.756Z,100359.50
2022-12-26T06:07:32.239Z,100368.56
2022-12-26T06:09:59.100Z,100360.94
2022-12-26T06:12:25.542Z,100370.47
2022-12-26T06:14:51.981Z,100360.31
2022-12-26T06:17:18.480Z,100364.06
2022-12-26T06:19:47.069Z,100349.66
2022-12-26T06:22:13.764Z,100358.03
2022-12-26T06:24:40.401Z,100359.81
2022-12-26T06:27:06.888Z,100358.44
2022-12-26T06:29:33.431Z,100358.75
2022-12-26T06:32:00.024Z,100368.56
2022-12-26T06:34:27.829Z,100379.34
2022-12-26T06:36:55.595Z,100394.38
2022-12-26T06:39:22.970Z,100398.22
2022-12-26T06:41:49.477Z,100398.22
2022-12-26T06:44:18.540Z,100393.63
2022-12-26T06:46:45.663Z,100412.94
2022-12-26T06:49:12.159Z,100408.78
2022-12-26T06:51:38.634Z,100422.50
2022-12-26T06:54:05.223Z,100419.69
2022-12-26T06:56:32.445Z,100418.69
2022-12-26T06:59:00.350Z,100426.19
2022-12-26T07:01:28.483Z,100423.59
2022-12-26T07:03:55.832Z,100415.03
2022-12-26T07:06:22.301Z,100420.06
2022-12-26T07:08:49.175Z,100423.91
2022-12-26T07:11:25.886Z,100436.44
2022-12-26T07:13:53.374Z,100434.44
2022-12-26T07:16:19.903Z,100435.19
2022-12-26T07:18:46.412Z,100435.19
2022-12-26T07:21:13.929Z,100434.72
2022-12-26T07:23:40.417Z,100427.44
2022-12-26T07:26:07.250Z,100434.75
2022-12-26T07:28:34.004Z,100435.38
2022-12-26T07:31:00.968Z,100429.31
2022-12-26T07:33:28.358Z,100425.09
2022-12-26T07:35:54.929Z,100430.25
2022-12-26T07:38:21.343Z,100428.06
2022-12-26T07:40:47.842Z,100423.13
2022-12-26T07:43:14.344Z,100424.44
2022-12-26T07:45:45.492Z,100430.78
2022-12-26T07:48:12.512Z,100437.88
2022-12-26T07:50:39.049Z,100441.97
2022-12-26T07:53:05.495Z,100448.38
2022-12-26T07:55:32.004Z,100452.66
2022-12-26T07:57:58.554Z,100456.00
2022-12-26T08:00:25.063Z,100463.66
2022-12-26T08:02:53.186Z,100461.97
2022-12-26T08:05:21.085Z,100467.00
2022-12-26T08:07:48.494Z,100456.56
2022-12-26T08:10:16.123Z,100457.94
2022-12-26T08:12:42.613Z,100450.91
2022-12-26T08:15:10.123Z,100441.88
2022-12-26T08:17:36.612Z,100449.06
2022-12-26T08:20:03.277Z,100454.28
2022-12-26T08:22:29.838Z,100451.38
2022-12-26T08:24:56.320Z,100449.72
2022-12-26T08:27:22.983Z,100446.78
2022-12-26T08:29:50.493Z,100450.56
2022-12-26T08:32:16.937Z,100456.94
2022-12-26T08:34:43.437Z,100461.44
2022-12-26T08:37:10.143Z,100447.41
2022-12-26T08:39:36.584Z,100457.88
2022-12-26T08:42:03.120Z,100452.09
2022-12-26T08:44:29.656Z,100455.47
2022-12-26T08:46:56.112Z,100453.50
2022-12-26T08:49:22.588Z,100460.72
2022-12-26T08:51:49.036Z,100454.31
2022-12-26T08:54:15.464Z,100460.81
2022-12-26T08:56:42.069Z,100458.41
2022-12-26T08:59:08.524Z,100453.28
2022-12-26T09:01:35.050Z,100465.59
2022-12-26T09:04:02.804Z,100474.28
2022-12-26T09:06:31.533Z,100480.75
2022-12-26T09:08:59.285Z,100487.75
2022-12-26T09:11:29.260Z,100487.25
2022-12-26T09:13:56.581Z,100491.63
2022-12-26T09:16:24.792Z,100489.13
2022-12-26T09:18:55.922Z,100493.97
2022-12-26T09:21:22.529Z,100504.09
2022-12-26T09:23:48.994Z,100500.66
2022-12-26T09:26:17.188Z,100508.72
2022-12-26T09:28:45.708Z,100503.94
2022-12-26T09:31:13.611Z,100512.31
2022-12-26T09:33:40.469Z,100515.66
2022-12-26T09:36:14.795Z,100510.53
2022-12-26T09:38:42.529Z,100514.41
2022-12-26T09:41:13.260Z,100506.06
2022-12-26T09:44:00.006Z,100505.81
2022-12-26T09:46:26.460Z,100497.69
2022-12-26T09:49:14.079Z,100498.31
2022-12-26T09:51:41.862Z,100506.16
2022-12-26T09:54:11.890Z,100501.66
2022-12-26T09:59:27.119Z,100507.13
2022-12-26T10:01:53.822Z,100513.09
2022-12-26T10:04:29.862Z,100514.84
2022-12-26T10:06:56.791Z,100524.47
2022-12-26T10:09:26.271Z,100528.16
2022-12-26T10:12:05.112Z,100532.03
2022-12-26T10:14:34.743Z,100530.28
2022-12-26T10:17:10.466Z,100537.38
2022-12-26T10:19:37.894Z,100544.72
2022-12-26T10:22:23.116Z,100540.94
2022-12-26T10:24:50.245Z,100542.72
2022-12-26T10:27:18.029Z,100532.91
2022-12-26T10:30:04.367Z,100537.28
2022-12-26T10:32:36.662Z,100523.38
2022-12-26T10:35:20.707Z,100534.13
2022-12-26T10:37:47.808Z,100529.41
2022-12-26T10:40:14.287Z,100525.78
2022-12-26T10:42:42.651Z,100528.69
2022-12-26T10:45:16.656Z,100519.38
2022-12-26T10:47:47.011Z,100517.25
2022-12-26T10:50:25.410Z,100527.44
2022-12-26T10:52:54.240Z,100523.13
2022-12-26T10:55:31.564Z,100525.44
2022-12-26T10:58:17.154Z,100525.13
2022-12-26T11:00:44.200Z,100517.88
2022-12-26T11:03:15.755Z,100520.41
2022-12-26T11:06:07.644Z,100519.25
2022-12-26T11:08:44.190Z,100526.56
2022-12-26T11:11:23.774Z,100531.16
2022-12-26T11:14:03.101Z,100532.50
2022-12-26T11:16:31.747Z,100527.38
2022-12-26T11:19:01.403Z,100537.53
2022-12-26T11:21:30.674Z,100529.44
2022-12-26T11:24:09.962Z,100526.19
2022-12-26T11:26:37.771Z,100521.94
2022-12-26T11:29:24.447Z,100507.06
2022-12-26T11:31:56.506Z,100508.84
2022-12-26T11:34:37.869Z,100500.47
2022-12-26T11:37:06.868Z,100506.06
2022-12-26T11:39:37.181Z,100507.84
2022-12-26T11:42:23.826Z,100513.19
2022-12-26T11:44:57.394Z,100513.91
2022-12-26T11:47:28.435Z,100511.19
2022-12-26T11:49:58.300Z,100511.31
2022-12-26T11:52:36.378Z,100522.94
2022-12-26T11:55:25.273Z,100527.34
2022-12-26T11:57:58.894Z,100523.91
2022-12-26T12:00:34.481Z,100526.22
2022-12-26T12:03:12.760Z,100534.06
2022-12-26T12:06:05.580Z,100534.28
2022-12-26T12:11:45.697Z,100523.19
2022-12-26T12:14:29.310Z,100528.41
2022-12-26T12:17:01.165Z,100511.88
2022-12-26T12:19:32.135Z,100523.75
2022-12-26T12:21:58.592Z,100516.25
2022-12-26T12:24:44.422Z,100508.59
2022-12-26T12:27:31.492Z,100505.88
2022-12-26T12:30:15.208Z,100508.06
2022-12-26T12:33:00.935Z,100498.75
2022-12-26T12:35:49.010Z,100476.41
2022-12-26T12:38:24.885Z,100486.31
2022-12-26T12:41:09.364Z,100495.22
2022-12-26T12:47:05.350Z,100494.38
2022-12-26T12:49:44.653Z,100492.84
2022-12-26T12:52:20.477Z,100492.84
2022-12-26T12:55:10.245Z,100505.91
2022-12-26T12:57:55.270Z,100518.59
2022-12-26T13:00:23.680Z,100503.19
2022-12-26T13:02:56.311Z,100505.63
2022-12-26T13:05:28.931Z,100510.31
2022-12-26T13:08:21.791Z,100506.97
2022-12-26T13:10:54.816Z,100497.59
2022-12-26T13:13:40.375Z,100499.13
2022-12-26T13:16:17.434Z,100499.97
2022-12-26T13:18:56.286Z,100499.44
2022-12-26T13:21:23.032Z,100496.44
2022-12-26T13:24:11.115Z,100498.09
2022-12-26T13:26:53.584Z,100498.50
2022-12-26T13:29:26.211Z,100504.66
2022-12-26T13:31:52.837Z,100503.03
2022-12-26T13:34:20.225Z,100506.44
2022-12-26T13:36:48.324Z,100505.28
2022-12-26T13:39:23.965Z,100510.75
2022-12-26T13:42:36.251Z,100510.44
2022-12-26T13:45:21.245Z,100503.28
2022-12-26T13:47:47.767Z,100502.06
2022-12-26T13:50:33.090Z,100505.69
2022-12-26T13:52:59.721Z,100510.28
2022-12-26T13:55:31.666Z,100515.50
2022-12-26T13:58:12.541Z,100510.13
2022-12-26T14:00:46.277Z,100514.81
2022-12-26T14:03:22.079Z,100520.44
2022-12-26T14:05:48.743Z,100520.69
2022-12-26T14:08:34.457Z,100520.16
2022-12-26T14:11:07.097Z,100522.84
2022-12-26T14:13:33.761Z,100525.56
2022-12-26T14:16:03.238Z,100523.03
2022-12-26T14:18:38.674Z,100527.97
2022-12-26T14:21:40.971Z,100534.06
2022-12-26T14:24:13.344Z,100527.34
2022-12-26T14:26:52.008Z,100544.66
2022-12-26T14:29:27.285Z,100536.81
2022-12-26T14:32:12.589Z,100542.81
2022-12-26T14:34:39.003Z,100538.91
2022-12-26T14:37:14.537Z,100537.94
2022-12-26T14:39:40.981Z,100534.13
2022-12-26T14:42:26.382Z,100525.47
2022-12-26T14:44:57.264Z,100525.00
2022-12-26T14:47:38.759Z,100529.81
2022-12-26T14:50:24.201Z,100529.28
2022-12-26T14:52:50.892Z,100532.72
2022-12-26T14:55:35.887Z,100533.66
2022-12-26T14:58:21.149Z,100533.13
2022-12-26T15:00:48.309Z,100540.38
2022-12-26T15:03:14.744Z,100548.94
2022-12-26T15:05:44.636Z,100546.81
2022-12-26T15:08:29.875Z,100544.50
2022-12-26T15:11:15.106Z,100539.16
2022-12-26T15:14:00.075Z,100539.63
2022-12-26T15:16:32.570Z,100541.88
2022-12-26T15:19:37.736Z,100544.97
2022-12-26T15:22:27.424Z,100533.59
2022-12-26T15:25:20.645Z,100533.69
2022-12-26T15:28:09.445Z,100522.75
2022-12-26T15:30:45.758Z,100515.25
2022-12-26T15:33:38.761Z,100510.75
2022-12-26T15:36:14.356Z,100511.31
2022-12-26T15:38:40.898Z,100512.03
2022-12-26T15:41:13.529Z,100511.19
2022-12-26T15:43:47.494Z,100521.56
2022-12-26T15:46:31.111Z,100505.41
2022-12-26T15:49:16.230Z,100518.84
2022-12-26T15:52:01.398Z,100509.06
2022-12-26T15:54:27.872Z,100524.16
2022-12-26T15:57:03.609Z,100520.53
2022-12-26T15:59:43.273Z,100520.03
2022-12-26T16:02:14.124Z,100517.66
2022-12-26T16:04:52.702Z,100518.66
2022-12-26T16:07:34.667Z,100515.03
2022-12-26T16:10:01.774Z,100516.50
2022-12-26T16:12:29.958Z,100518.13
2022-12-26T16:15:15.164Z,100519.59
2022-12-26T16:17:42.104Z,100527.25
2022-12-26T16:20:43.706Z,100525.94
2022-12-26T16:23:21.908Z,100531.16
2022-12-26T16:25:49.457Z,100539.09
2022-12-26T16:28:22.920Z,100538.34
2022-12-26T16:30:54.144Z,100540.25
2022-12-26T16:33:21.180Z,100532.25
2022-12-26T16:35:51.629Z,100535.03
2022-12-26T16:38:27.931Z,100540.75
2022-12-26T16:40:56.833Z,100539.91
2022-12-26T16:43:27.470Z,100543.34
2022-12-26T16:46:00.803Z,100549.03
2022-12-26T16:48:29.345Z,100552.22
2022-12-26T16:50:57.458Z,100549.97
2022-12-26T16:53:27.789Z,100556.22
2022-12-26T16:55:56.925Z,100556.22
2022-12-26T16:58:27.026Z,100559.56
2022-12-26T17:01:13.738Z,100564.31
2022-12-26T17:03:55.865Z,100575.78
2022-12-26T17:06:26.512Z,100575.31
2022-12-26T17:08:57.114Z,100574.59
2022-12-26T17:11:32.440Z,100578.72
2022-12-26T17:14:00.118Z,100598.09
2022-12-26T17:16:28.536Z,100590.72
2022-12-26T17:18:56.092Z,100608.53
2022-12-26T17:21:22.547Z,100597.53
2022-12-26T17:24:04.059Z,100595.84
2022-12-26T17:26:40.823Z,100600.34
2022-12-26T17:29:27.256Z,100600.03
2022-12-26T17:31:53.933Z,100600.25
2022-12-26T17:34:25.369Z,100605.63
2022-12-26T17:37:18.438Z,100616.38
2022-12-26T17:39:39.064Z,100610.50
2022-12-26T17:42:06.161Z,100608.84
2022-12-26T17:44:34.265Z,100604.97
2022-12-26T17:47:12.563Z,100606.25
2022-12-26T17:49:39.269Z,100614.41
2022-12-26T17:52:05.929Z,100618.75
2022-12-26T17:54:32.602Z,100618.06
2022-12-26T17:57:00.853Z,100618.13
2022-12-26T17:59:27.559Z,100623.69
2022-12-26T18:01:54.198Z,100626.09
2022-12-26T18:04:20.732Z,100631.59
2022-12-26T18:06:47.365Z,100638.44
2022-12-26T18:09:24.057Z,100643.56
2022-12-26T18:11:50.729Z,100647.75
2022-12-26T18:14:17.767Z,100656.81
2022-12-26T18:16:44.334Z,100653.50
2022-12-26T18:19:15.290Z,100654.81
2022-12-26T18:21:41.934Z,100646.91
2022-12-26T18:24:08.786Z,100657.25
2022-12-26T18:26:35.631Z,100660.63
2022-12-26T18:29:02.484Z,100655.16
2022-12-26T18:31:29.271Z,100653.34
2022-12-26T18:33:55.917Z,100652.09
2022-12-26T18:36:25.848Z,100657.13
2022-12-26T18:38:52.496Z,100664.78
2022-12-26T18:41:19.720Z,100667.81
2022-12-26T18:43:46.452Z,100666.81
2022-12-26T18:46:19.997Z,100672.78
2022-12-26T18:48:46.894Z,100671.53
2022-12-26T18:51:13.410Z,100673.81
2022-12-26T18:53:40.056Z,100689.13
2022-12-26T18:56:07.045Z,100679.84
2022-12-26T18:58:33.622Z,100697.41
2022-12-26T19:01:02.707Z,100691.19
2022-12-26T19:03:29.499Z,100678.00
2022-12-26T19:05:56.307Z,100698.16
2022-12-26T19:08:22.821Z,100718.00
2022-12-26T19:10:49.328Z,100708.09
2022-12-26T19:13:15.961Z,100721.44
2022-12-26T19:15:45.196Z,100729.59
2022-12-26T19:18:11.778Z,100742.53
2022-12-26T19:20:43.968Z,100726.91
2022-12-26T19:23:11.237Z,100739.34
2022-12-26T19:25:38.020Z,100733.53
2022-12-26T19:28:04.701Z,100740.28
2022-12-26T19:30:35.248Z,100748.41
2022-12-26T19:33:05.375Z,100748.09
2022-12-26T19:35:32.099Z,100750.53
2022-12-26T19:37:58.943Z,100769.25
2022-12-26T19:40:25.573Z,100770.56
2022-12-26T19:42:52.709Z,100777.91
2022-12-26T19:45:19.407Z,100788.31
2022-12-26T19:47:46.932Z,100782.66
2022-12-26T19:50:13.959Z,100788.56
2022-12-26T19:52:41.382Z,100798.44
2022-12-26T19:55:08.748Z,100815.19
2022-12-26T19:57:35.291Z,100816.78
2022-12-26T20:00:02.003Z,100812.88
2022-12-26T20:02:28.811Z,100819.22
2022-12-26T20:04:55.540Z,100819.66
2022-12-26T20:07:22.015Z,100825.31
2022-12-26T20:09:48.661Z,100834.59
2022-12-26T20:12:15.143Z,100834.41
2022-12-26T20:14:41.615Z,100829.72
2022-12-26T20:17:09.535Z,100834.47
2022-12-26T20:19:36.652Z,100844.16
2022-12-26T20:22:03.604Z,100844.09
2022-12-26T20:24:30.191Z,100853.97
2022-12-26T20:26:56.728Z,100854.75
2022-12-26T20:29:23.287Z,100848.16
2022-12-26T20:31:50.029Z,100843.94
2022-12-26T20:34:16.625Z,100841.63
2022-12-26T20:36:43.156Z,100844.41
2022-12-26T20:39:14.728Z,100853.69
2022-12-26T20:41:41.459Z,100855.22
2022-12-26T20:44:08.004Z,100868.03
2022-12-26T20:46:35.271Z,100869.69
2022-12-26T20:49:02.630Z,100878.03
2022-12-26T20:51:36.860Z,100877.47
2022-12-26T20:54:05.325Z,100888.59
2022-12-26T20:56:31.948Z,100896.91
2022-12-26T20:58:59.773Z,100899.50
2022-12-26T21:01:26.770Z,100895.50
2022-12-26T21:03:54.096Z,100896.97
2022-12-26T21:06:22.237Z,100893.84
2022-12-26T21:08:49.684Z,100908.78
2022-12-26T21:11:17.651Z,100920.66
2022-12-26T21:13:45.034Z,100921.47
2022-12-26T21:16:11.499Z,100921.00
2022-12-26T21:18:38.313Z,100936.00
2022-12-26T21:21:09.291Z,100939.78
2022-12-26T21:23:36.491Z,100938.75
2022-12-26T21:26:03.234Z,100943.00
2022-12-26T21:28:30.175Z,100948.41
2022-12-26T21:30:57.028Z,100951.50
2022-12-26T21:33:23.646Z,100945.00
2022-12-26T21:35:53.252Z,100964.59
2022-12-26T21:38:23.953Z,100963.09
2022-12-26T21:40:50.890Z,100966.06
2022-12-26T21:43:17.409Z,100969.31
2022-12-26T21:45:44.031Z,100972.44
2022-12-26T21:48:10.809Z,100979.41
2022-12-26T21:50:37.278Z,100976.16
2022-12-26T21:53:04.029Z,100985.38
2022-12-26T21:55:31.299Z,100999.78
2022-12-26T21:57:59.559Z,100993.34
2022-12-26T22:00:26.513Z,100999.25
2022-12-26T22:03:11.774Z,101003.00
2022-12-26T22:05:39.682Z,100999.19
2022-12-26T22:08:11.223Z,101009.47
2022-12-26T22:11:08.907Z,101012.84
2022-12-26T22:13:41.887Z,101006.25
2022-12-26T22:16:09.702Z,101019.97
2022-12-26T22:18:37.808Z,101031.94
2022-12-26T22:21:20.970Z,101046.19
2022-12-26T22:23:50.465Z,101035.47
2022-12-26T22:26:17.517Z,101044.91
2022-12-26T22:28:44.721Z,101051.38
2022-12-26T22:31:26.589Z,101058.22
2022-12-26T22:34:00.935Z,101065.34
2022-12-26T22:36:30.693Z,101076.13
2022-12-26T22:38:58.104Z,101078.31
2022-12-26T22:41:28.887Z,101077.63
2022-12-26T22:43:55.809Z,101080.59
2022-12-26T22:46:22.753Z,101089.34
2022-12-26T22:48:49.300Z,101089.53
2022-12-26T22:51:17.027Z,101094.09
2022-12-26T22:53:43.654Z,101096.53
2022-12-26T22:56:11.631Z,101100.91
2022-12-26T22:58:38.276Z,101099.03
2022-12-26T23:01:11.636Z,101104.47
2022-12-26T23:03:38.236Z,101109.72
2022-12-26T23:06:15.245Z,101121.34
2022-12-26T23:08:41.858Z,101121.25
2022-12-26T23:11:08.563Z,101115.69
2022-12-26T23:13:35.101Z,101120.09
2022-12-26T23:16:10.777Z,101116.69
2022-12-26T23:19:25.297Z,101117.25
2022-12-26T23:21:52.074Z,101118.59
2022-12-26T23:24:23.097Z,101117.72
2022-12-26T23:26:51.120Z,101117.00
2022-12-26T23:29:37.488Z,101120.50
2022-12-26T23:32:04.554Z,101123.41
2022-12-26T23:34:31.023Z,101122.53
2022-12-26T23:36:57.477Z,101128.19
2022-12-26T23:39:24.128Z,101118.50
2022-12-26T23:41:50.667Z,101121.88
2022-12-26T23:44:17.370Z,101123.78
2022-12-26T23:46:44.645Z,101126.72
2022-12-26T23:49:12.522Z,101134.75
2022-12-26T23:51:39.182Z,101127.16
2022-12-26T23:54:05.763Z,101128.34
2022-12-26T23:56:32.498Z,101137.25
2022-12-26T23:58:59.025Z,101132.28
